sensor_id;sensor_type;location;lat;lon;timestamp;temperature;humidity
24162;DHT22;12318;51.262;7.066;2023-06-22T01:09:28;20.30;91.80
24162;DHT22;12318;51.262;7.066;2023-06-22T01:12:00;20.20;92.40
24162;DHT22;12318;51.262;7.066;2023-06-22T01:17:01;20.10;93.40
24162;DHT22;12318;51.262;7.066;2023-06-22T01:19:46;20.10;94.00
24162;DHT22;12318;51.262;7.066;2023-06-22T01:22:15;20.10;94.00
24162;DHT22;12318;51.262;7.066;2023-06-22T01:25:10;20.10;94.70
24162;DHT22;12318;51.262;7.066;2023-06-22T01:30:41;20.10;95.20
24162;DHT22;12318;51.262;7.066;2023-06-22T01:33:10;20.10;95.50
24162;DHT22;12318;51.262;7.066;2023-06-22T01:35:38;20.10;95.60
24162;DHT22;12318;51.262;7.066;2023-06-22T01:38:04;20.00;96.10
24162;DHT22;12318;51.262;7.066;2023-06-22T01:40:33;20.00;96.50
24162;DHT22;12318;51.262;7.066;2023-06-22T01:43:01;20.00;97.00
24162;DHT22;12318;51.262;7.066;2023-06-22T01:45:28;20.00;97.20
24162;DHT22;12318;51.262;7.066;2023-06-22T01:47:54;20.10;97.00
24162;DHT22;12318;51.262;7.066;2023-06-22T01:50:21;20.00;97.40
24162;DHT22;12318;51.262;7.066;2023-06-22T01:52:47;20.20;97.50
24162;DHT22;12318;51.262;7.066;2023-06-22T01:55:13;20.20;96.70
24162;DHT22;12318;51.262;7.066;2023-06-22T01:57:39;20.30;96.70
24162;DHT22;12318;51.262;7.066;2023-06-22T02:00:08;20.20;96.70
24162;DHT22;12318;51.262;7.066;2023-06-22T02:03:11;20.10;96.80
24162;DHT22;12318;51.262;7.066;2023-06-22T02:05:56;20.00;97.50
24162;DHT22;12318;51.262;7.066;2023-06-22T02:08:26;20.10;98.10
24162;DHT22;12318;51.262;7.066;2023-06-22T02:10:54;20.00;98.30
24162;DHT22;12318;51.262;7.066;2023-06-22T02:13:21;19.90;98.90
24162;DHT22;12318;51.262;7.066;2023-06-22T02:15:47;19.90;99.20
24162;DHT22;12318;51.262;7.066;2023-06-22T02:18:14;19.90;99.40
24162;DHT22;12318;51.262;7.066;2023-06-22T02:20:39;19.80;99.90
24162;DHT22;12318;51.262;7.066;2023-06-22T02:23:07;19.70;99.90
24162;DHT22;12318;51.262;7.066;2023-06-22T02:25:33;19.70;99.90
24162;DHT22;12318;51.262;7.066;2023-06-22T02:27:59;19.70;99.90
24162;DHT22;12318;51.262;7.066;2023-06-22T02:30:25;19.70;99.90
24162;DHT22;12318;51.262;7.066;2023-06-22T02:32:51;19.70;99.90
24162;DHT22;12318;51.262;7.066;2023-06-22T02:35:32;19.70;99.90
24162;DHT22;12318;51.262;7.066;2023-06-22T02:38:02;19.60;99.90
24162;DHT22;12318;51.262;7.066;2023-06-22T02:40:29;19.60;99.90
24162;DHT22;12318;51.262;7.066;2023-06-22T02:42:55;19.50;99.90
24162;DHT22;12318;51.262;7.066;2023-06-22T02:45:23;19.50;99.90
24162;DHT22;12318;51.262;7.066;2023-06-22T02:47:49;19.50;99.90
24162;DHT22;12318;51.262;7.066;2023-06-22T02:50:15;19.50;99.90
24162;DHT22;12318;51.262;7.066;2023-06-22T02:52:41;19.40;99.90
24162;DHT22;12318;51.262;7.066;2023-06-22T02:55:07;19.40;99.90
24162;DHT22;12318;51.262;7.066;2023-06-22T02:57:33;19.40;99.90
24162;DHT22;12318;51.262;7.066;2023-06-22T02:59:59;19.40;99.90
24162;DHT22;12318;51.262;7.066;2023-06-22T03:02:25;19.50;99.90
24162;DHT22;12318;51.262;7.066;2023-06-22T03:04:52;19.50;99.90
24162;DHT22;12318;51.262;7.066;2023-06-22T03:07:19;19.50;99.90
24162;DHT22;12318;51.262;7.066;2023-06-22T03:09:45;19.50;99.90
24162;DHT22;12318;51.262;7.066;2023-06-22T03:12:11;19.40;99.90
24162;DHT22;12318;51.262;7.066;2023-06-22T03:14:37;19.40;99.90
24162;DHT22;12318;51.262;7.066;2023-06-22T03:17:04;19.40;99.90
24162;DHT22;12318;51.262;7.066;2023-06-22T03:19:30;19.30;99.90
24162;DHT22;12318;51.262;7.066;2023-06-22T03:22:00;19.30;99.90
24162;DHT22;12318;51.262;7.066;2023-06-22T03:24:26;19.30;99.90
24162;DHT22;12318;51.262;7.066;2023-06-22T03:26:54;19.30;99.90
24162;DHT22;12318;51.262;7.066;2023-06-22T03:29:20;19.20;99.90
24162;DHT22;12318;51.262;7.066;2023-06-22T03:31:46;19.10;99.90
24162;DHT22;12318;51.262;7.066;2023-06-22T03:34:12;19.10;99.90
24162;DHT22;12318;51.262;7.066;2023-06-22T03:36:37;19.10;99.90
24162;DHT22;12318;51.262;7.066;2023-06-22T03:39:03;19.20;99.90
24162;DHT22;12318;51.262;7.066;2023-06-22T03:41:29;19.20;99.90
24162;DHT22;12318;51.262;7.066;2023-06-22T03:43:56;19.30;99.90
24162;DHT22;12318;51.262;7.066;2023-06-22T03:46:21;19.30;99.90
24162;DHT22;12318;51.262;7.066;2023-06-22T03:48:47;19.20;99.90
24162;DHT22;12318;51.262;7.066;2023-06-22T03:51:13;19.00;99.90
24162;DHT22;12318;51.262;7.066;2023-06-22T03:53:38;18.90;99.90
24162;DHT22;12318;51.262;7.066;2023-06-22T03:56:04;18.70;99.90
24162;DHT22;12318;51.262;7.066;2023-06-22T03:58:30;18.60;99.90
24162;DHT22;12318;51.262;7.066;2023-06-22T04:00:58;18.50;99.90
24162;DHT22;12318;51.262;7.066;2023-06-22T04:03:25;18.50;99.90
24162;DHT22;12318;51.262;7.066;2023-06-22T04:05:51;18.50;99.90
24162;DHT22;12318;51.262;7.066;2023-06-22T04:08:18;18.50;99.90
24162;DHT22;12318;51.262;7.066;2023-06-22T04:10:43;18.50;99.90
24162;DHT22;12318;51.262;7.066;2023-06-22T04:13:10;18.50;99.90
24162;DHT22;12318;51.262;7.066;2023-06-22T04:15:36;18.50;99.90
24162;DHT22;12318;51.262;7.066;2023-06-22T04:18:02;18.50;99.90
24162;DHT22;12318;51.262;7.066;2023-06-22T04:20:28;18.50;99.90
24162;DHT22;12318;51.262;7.066;2023-06-22T04:22:54;18.50;99.90
24162;DHT22;12318;51.262;7.066;2023-06-22T04:25:20;18.50;99.90
24162;DHT22;12318;51.262;7.066;2023-06-22T04:27:46;18.60;99.90
24162;DHT22;12318;51.262;7.066;2023-06-22T04:30:12;18.60;99.90
24162;DHT22;12318;51.262;7.066;2023-06-22T04:32:40;18.50;99.90
24162;DHT22;12318;51.262;7.066;2023-06-22T04:35:07;18.50;99.90
24162;DHT22;12318;51.262;7.066;2023-06-22T04:37:34;18.50;99.90
24162;DHT22;12318;51.262;7.066;2023-06-22T04:40:00;18.60;99.90
24162;DHT22;12318;51.262;7.066;2023-06-22T04:42:28;18.60;99.90
24162;DHT22;12318;51.262;7.066;2023-06-22T04:44:54;18.60;99.90
24162;DHT22;12318;51.262;7.066;2023-06-22T04:47:23;18.60;99.90
24162;DHT22;12318;51.262;7.066;2023-06-22T04:49:48;18.60;99.90
24162;DHT22;12318;51.262;7.066;2023-06-22T04:52:14;18.60;99.90
24162;DHT22;12318;51.262;7.066;2023-06-22T04:54:43;18.60;99.90
24162;DHT22;12318;51.262;7.066;2023-06-22T04:57:16;18.70;99.90
24162;DHT22;12318;51.262;7.066;2023-06-22T04:59:42;18.60;99.90
24162;DHT22;12318;51.262;7.066;2023-06-22T05:02:08;18.70;99.90
24162;DHT22;12318;51.262;7.066;2023-06-22T05:04:34;18.80;99.90
24162;DHT22;12318;51.262;7.066;2023-06-22T05:07:01;18.90;99.90
24162;DHT22;12318;51.262;7.066;2023-06-22T05:09:28;18.90;99.90
24162;DHT22;12318;51.262;7.066;2023-06-22T05:11:54;19.00;99.90
24162;DHT22;12318;51.262;7.066;2023-06-22T05:14:22;19.10;99.90
24162;DHT22;12318;51.262;7.066;2023-06-22T05:16:48;19.20;99.90
24162;DHT22;12318;51.262;7.066;2023-06-22T05:19:14;19.30;99.90
24162;DHT22;12318;51.262;7.066;2023-06-22T05:21:39;19.40;99.90
24162;DHT22;12318;51.262;7.066;2023-06-22T05:24:05;19.40;99.90
24162;DHT22;12318;51.262;7.066;2023-06-22T05:26:32;19.40;99.90
24162;DHT22;12318;51.262;7.066;2023-06-22T05:32:20;19.60;99.90
24162;DHT22;12318;51.262;7.066;2023-06-22T05:34:47;19.70;99.90
24162;DHT22;12318;51.262;7.066;2023-06-22T05:37:13;19.90;99.90
24162;DHT22;12318;51.262;7.066;2023-06-22T05:39:39;19.70;99.90
24162;DHT22;12318;51.262;7.066;2023-06-22T05:42:05;19.60;99.90
24162;DHT22;12318;51.262;7.066;2023-06-22T05:44:32;19.50;99.90
24162;DHT22;12318;51.262;7.066;2023-06-22T05:47:01;19.50;99.90
24162;DHT22;12318;51.262;7.066;2023-06-22T05:49:36;19.50;99.90
24162;DHT22;12318;51.262;7.066;2023-06-22T05:52:04;19.50;99.90
24162;DHT22;12318;51.262;7.066;2023-06-22T05:54:37;19.60;99.90
24162;DHT22;12318;51.262;7.066;2023-06-22T05:57:04;19.50;99.90
24162;DHT22;12318;51.262;7.066;2023-06-22T05:59:30;19.60;99.90
24162;DHT22;12318;51.262;7.066;2023-06-22T06:01:56;19.50;99.90
24162;DHT22;12318;51.262;7.066;2023-06-22T06:04:21;19.40;99.90
24162;DHT22;12318;51.262;7.066;2023-06-22T06:06:56;19.40;99.90
24162;DHT22;12318;51.262;7.066;2023-06-22T06:09:29;19.40;99.90
24162;DHT22;12318;51.262;7.066;2023-06-22T06:12:09;19.40;99.90
24162;DHT22;12318;51.262;7.066;2023-06-22T06:14:46;19.50;99.90
24162;DHT22;12318;51.262;7.066;2023-06-22T06:17:12;19.60;99.90
24162;DHT22;12318;51.262;7.066;2023-06-22T06:19:38;19.60;99.90
24162;DHT22;12318;51.262;7.066;2023-06-22T06:22:04;19.60;99.90
24162;DHT22;12318;51.262;7.066;2023-06-22T06:24:32;19.60;99.90
24162;DHT22;12318;51.262;7.066;2023-06-22T06:26:58;19.70;99.90
24162;DHT22;12318;51.262;7.066;2023-06-22T06:29:27;19.70;99.90
24162;DHT22;12318;51.262;7.066;2023-06-22T06:32:11;19.80;99.90
24162;DHT22;12318;51.262;7.066;2023-06-22T06:34:43;19.80;99.90
24162;DHT22;12318;51.262;7.066;2023-06-22T06:37:09;19.70;99.90
24162;DHT22;12318;51.262;7.066;2023-06-22T06:39:35;19.70;99.90
24162;DHT22;12318;51.262;7.066;2023-06-22T06:42:04;19.70;99.90
24162;DHT22;12318;51.262;7.066;2023-06-22T06:44:30;19.70;99.90
24162;DHT22;12318;51.262;7.066;2023-06-22T06:47:00;19.70;99.90
24162;DHT22;12318;51.262;7.066;2023-06-22T06:49:26;19.80;99.90
24162;DHT22;12318;51.262;7.066;2023-06-22T06:51:52;19.90;99.90
24162;DHT22;12318;51.262;7.066;2023-06-22T06:54:20;19.80;99.90
24162;DHT22;12318;51.262;7.066;2023-06-22T06:56:46;19.80;99.90
24162;DHT22;12318;51.262;7.066;2023-06-22T06:59:14;19.70;99.90
24162;DHT22;12318;51.262;7.066;2023-06-22T07:01:41;19.70;99.90
24162;DHT22;12318;51.262;7.066;2023-06-22T07:04:07;19.80;99.90
24162;DHT22;12318;51.262;7.066;2023-06-22T07:06:32;19.60;99.90
24162;DHT22;12318;51.262;7.066;2023-06-22T07:08:59;19.50;99.90
24162;DHT22;12318;51.262;7.066;2023-06-22T07:11:26;19.60;99.90
24162;DHT22;12318;51.262;7.066;2023-06-22T07:13:52;19.60;99.90
24162;DHT22;12318;51.262;7.066;2023-06-22T07:16:17;19.40;99.90
24162;DHT22;12318;51.262;7.066;2023-06-22T07:18:44;19.30;99.90
24162;DHT22;12318;51.262;7.066;2023-06-22T07:21:09;19.30;99.90
24162;DHT22;12318;51.262;7.066;2023-06-22T07:23:35;19.20;99.90
24162;DHT22;12318;51.262;7.066;2023-06-22T07:26:05;19.20;99.90
24162;DHT22;12318;51.262;7.066;2023-06-22T07:28:34;19.10;99.90
24162;DHT22;12318;51.262;7.066;2023-06-22T07:31:03;19.00;99.90
24162;DHT22;12318;51.262;7.066;2023-06-22T07:33:31;18.90;99.90
24162;DHT22;12318;51.262;7.066;2023-06-22T07:35:57;18.90;99.90
24162;DHT22;12318;51.262;7.066;2023-06-22T07:38:23;18.70;99.90
24162;DHT22;12318;51.262;7.066;2023-06-22T07:40:49;18.70;99.90
24162;DHT22;12318;51.262;7.066;2023-06-22T07:43:16;18.70;99.90
24162;DHT22;12318;51.262;7.066;2023-06-22T07:45:50;18.70;99.90
24162;DHT22;12318;51.262;7.066;2023-06-22T07:48:22;18.70;99.90
24162;DHT22;12318;51.262;7.066;2023-06-22T07:50:48;18.90;99.90
24162;DHT22;12318;51.262;7.066;2023-06-22T07:53:15;18.90;99.90
24162;DHT22;12318;51.262;7.066;2023-06-22T07:55:42;19.00;99.90
24162;DHT22;12318;51.262;7.066;2023-06-22T07:58:11;19.20;99.90
24162;DHT22;12318;51.262;7.066;2023-06-22T08:00:37;19.40;99.90
24162;DHT22;12318;51.262;7.066;2023-06-22T08:03:02;19.40;99.90
24162;DHT22;12318;51.262;7.066;2023-06-22T08:05:33;19.50;99.90
24162;DHT22;12318;51.262;7.066;2023-06-22T08:08:03;19.80;99.90
24162;DHT22;12318;51.262;7.066;2023-06-22T08:10:29;20.20;99.90
24162;DHT22;12318;51.262;7.066;2023-06-22T08:12:55;20.20;99.90
24162;DHT22;12318;51.262;7.066;2023-06-22T08:15:20;20.30;99.90
24162;DHT22;12318;51.262;7.066;2023-06-22T08:17:47;20.40;99.90
24162;DHT22;12318;51.262;7.066;2023-06-22T08:20:17;20.50;99.90
24162;DHT22;12318;51.262;7.066;2023-06-22T08:22:43;20.70;99.90
24162;DHT22;12318;51.262;7.066;2023-06-22T08:25:11;21.00;99.90
24162;DHT22;12318;51.262;7.066;2023-06-22T08:31:30;21.10;99.90
24162;DHT22;12318;51.262;7.066;2023-06-22T08:33:56;21.20;99.90
24162;DHT22;12318;51.262;7.066;2023-06-22T08:36:22;21.40;99.90
24162;DHT22;12318;51.262;7.066;2023-06-22T08:38:51;21.70;99.90
24162;DHT22;12318;51.262;7.066;2023-06-22T08:41:27;22.00;99.90
24162;DHT22;12318;51.262;7.066;2023-06-22T08:43:53;22.20;99.90
24162;DHT22;12318;51.262;7.066;2023-06-22T08:49:32;22.10;99.90
24162;DHT22;12318;51.262;7.066;2023-06-22T08:52:04;22.10;99.90
24162;DHT22;12318;51.262;7.066;2023-06-22T08:54:35;22.00;99.90
24162;DHT22;12318;51.262;7.066;2023-06-22T08:57:39;21.80;99.90
24162;DHT22;12318;51.262;7.066;2023-06-22T09:00:37;21.80;99.90
24162;DHT22;12318;51.262;7.066;2023-06-22T09:03:03;21.90;99.90
24162;DHT22;12318;51.262;7.066;2023-06-22T09:05:29;21.90;99.90
24162;DHT22;12318;51.262;7.066;2023-06-22T09:07:58;22.30;99.90
24162;DHT22;12318;51.262;7.066;2023-06-22T09:10:25;22.80;99.90
24162;DHT22;12318;51.262;7.066;2023-06-22T09:12:51;23.00;99.90
24162;DHT22;12318;51.262;7.066;2023-06-22T09:15:16;23.20;99.90
24162;DHT22;12318;51.262;7.066;2023-06-22T09:17:42;23.30;99.90
24162;DHT22;12318;51.262;7.066;2023-06-22T09:20:09;23.30;99.90
24162;DHT22;12318;51.262;7.066;2023-06-22T09:22:36;23.10;99.90
24162;DHT22;12318;51.262;7.066;2023-06-22T09:25:02;23.00;99.90
24162;DHT22;12318;51.262;7.066;2023-06-22T09:27:28;23.10;99.90
24162;DHT22;12318;51.262;7.066;2023-06-22T09:29:55;23.10;99.90
24162;DHT22;12318;51.262;7.066;2023-06-22T09:32:24;23.40;99.90
24162;DHT22;12318;51.262;7.066;2023-06-22T09:34:50;23.50;99.90
24162;DHT22;12318;51.262;7.066;2023-06-22T09:37:15;23.60;99.90
24162;DHT22;12318;51.262;7.066;2023-06-22T09:39:41;23.70;99.90
24162;DHT22;12318;51.262;7.066;2023-06-22T09:42:07;23.90;99.90
24162;DHT22;12318;51.262;7.066;2023-06-22T09:44:33;24.10;99.90
24162;DHT22;12318;51.262;7.066;2023-06-22T10:01:01;24.70;99.90
24162;DHT22;12318;51.262;7.066;2023-06-22T10:06:56;24.90;99.90
24162;DHT22;12318;51.262;7.066;2023-06-22T10:09:49;24.70;99.90
24162;DHT22;12318;51.262;7.066;2023-06-22T10:12:20;24.60;99.90
24162;DHT22;12318;51.262;7.066;2023-06-22T10:15:09;24.70;99.90
24162;DHT22;12318;51.262;7.066;2023-06-22T10:21:00;24.80;99.90
24162;DHT22;12318;51.262;7.066;2023-06-22T10:23:33;24.80;99.90
24162;DHT22;12318;51.262;7.066;2023-06-22T10:29:57;24.90;99.90
24162;DHT22;12318;51.262;7.066;2023-06-22T10:32:23;25.00;99.90
24162;DHT22;12318;51.262;7.066;2023-06-22T10:34:49;24.90;99.90
24162;DHT22;12318;51.262;7.066;2023-06-22T10:37:14;24.70;99.90
24162;DHT22;12318;51.262;7.066;2023-06-22T10:39:42;24.50;99.90
24162;DHT22;12318;51.262;7.066;2023-06-22T10:42:20;24.40;99.90
24162;DHT22;12318;51.262;7.066;2023-06-22T10:44:48;24.40;99.90
24162;DHT22;12318;51.262;7.066;2023-06-22T10:47:21;24.40;99.90
24162;DHT22;12318;51.262;7.066;2023-06-22T10:50:26;24.40;99.90
24162;DHT22;12318;51.262;7.066;2023-06-22T10:53:29;24.30;99.90
24162;DHT22;12318;51.262;7.066;2023-06-22T10:59:30;24.20;99.90
24162;DHT22;12318;51.262;7.066;2023-06-22T11:02:02;24.10;99.90
24162;DHT22;12318;51.262;7.066;2023-06-22T11:04:27;24.00;99.90
24162;DHT22;12318;51.262;7.066;2023-06-22T11:06:53;23.80;99.90
24162;DHT22;12318;51.262;7.066;2023-06-22T11:09:19;23.60;99.90
24162;DHT22;12318;51.262;7.066;2023-06-22T11:11:51;23.50;99.90
24162;DHT22;12318;51.262;7.066;2023-06-22T11:14:20;23.30;99.90
24162;DHT22;12318;51.262;7.066;2023-06-22T11:16:46;23.10;99.90
24162;DHT22;12318;51.262;7.066;2023-06-22T11:19:12;23.00;99.90
24162;DHT22;12318;51.262;7.066;2023-06-22T11:21:39;22.80;99.90
24162;DHT22;12318;51.262;7.066;2023-06-22T11:24:05;22.70;99.90
24162;DHT22;12318;51.262;7.066;2023-06-22T11:26:31;22.60;99.90
24162;DHT22;12318;51.262;7.066;2023-06-22T11:28:58;22.40;99.90
24162;DHT22;12318;51.262;7.066;2023-06-22T11:31:24;22.40;99.90
24162;DHT22;12318;51.262;7.066;2023-06-22T11:33:49;22.40;99.90
24162;DHT22;12318;51.262;7.066;2023-06-22T11:36:15;22.40;99.90
24162;DHT22;12318;51.262;7.066;2023-06-22T11:38:41;22.40;99.90
24162;DHT22;12318;51.262;7.066;2023-06-22T11:41:08;22.40;99.90
24162;DHT22;12318;51.262;7.066;2023-06-22T11:43:34;22.40;99.90
24162;DHT22;12318;51.262;7.066;2023-06-22T11:46:02;22.10;99.90
24162;DHT22;12318;51.262;7.066;2023-06-22T11:48:28;21.70;99.90
24162;DHT22;12318;51.262;7.066;2023-06-22T11:50:54;21.40;99.90
24162;DHT22;12318;51.262;7.066;2023-06-22T11:53:21;21.40;99.90
24162;DHT22;12318;51.262;7.066;2023-06-22T11:55:47;21.30;99.90
24162;DHT22;12318;51.262;7.066;2023-06-22T11:58:14;21.30;99.90
24162;DHT22;12318;51.262;7.066;2023-06-22T12:00:40;21.50;99.90
24162;DHT22;12318;51.262;7.066;2023-06-22T12:03:07;21.50;99.90
24162;DHT22;12318;51.262;7.066;2023-06-22T12:05:33;21.60;99.90
24162;DHT22;12318;51.262;7.066;2023-06-22T12:08:01;21.60;99.90
24162;DHT22;12318;51.262;7.066;2023-06-22T12:10:27;21.70;99.90
24162;DHT22;12318;51.262;7.066;2023-06-22T12:12:56;21.70;99.90
24162;DHT22;12318;51.262;7.066;2023-06-22T12:15:26;21.80;99.90
24162;DHT22;12318;51.262;7.066;2023-06-22T12:17:52;21.80;99.90
24162;DHT22;12318;51.262;7.066;2023-06-22T12:20:18;21.60;99.90
24162;DHT22;12318;51.262;7.066;2023-06-22T12:22:44;21.50;99.90
24162;DHT22;12318;51.262;7.066;2023-06-22T12:25:12;21.50;99.90
24162;DHT22;12318;51.262;7.066;2023-06-22T12:27:38;21.40;99.90
24162;DHT22;12318;51.262;7.066;2023-06-22T12:30:08;21.40;99.90
24162;DHT22;12318;51.262;7.066;2023-06-22T12:32:33;21.40;99.90
24162;DHT22;12318;51.262;7.066;2023-06-22T12:35:04;21.50;99.90
24162;DHT22;12318;51.262;7.066;2023-06-22T12:37:33;21.70;99.90
24162;DHT22;12318;51.262;7.066;2023-06-22T12:39:59;21.80;99.90
24162;DHT22;12318;51.262;7.066;2023-06-22T12:42:24;21.70;99.90
24162;DHT22;12318;51.262;7.066;2023-06-22T12:44:51;21.80;99.90
24162;DHT22;12318;51.262;7.066;2023-06-22T12:50:26;21.90;99.90
24162;DHT22;12318;51.262;7.066;2023-06-22T12:53:24;21.90;99.90
24162;DHT22;12318;51.262;7.066;2023-06-22T13:02:40;22.10;99.90
24162;DHT22;12318;51.262;7.066;2023-06-22T13:05:22;22.40;99.90
24162;DHT22;12318;51.262;7.066;2023-06-22T13:08:09;22.40;99.90
24162;DHT22;12318;51.262;7.066;2023-06-22T13:21:53;22.20;99.90
24162;DHT22;12318;51.262;7.066;2023-06-22T13:24:55;22.30;99.90
24162;DHT22;12318;51.262;7.066;2023-06-22T13:38:06;22.90;99.90
24162;DHT22;12318;51.262;7.066;2023-06-22T13:50:43;22.70;99.90
24162;DHT22;12318;51.262;7.066;2023-06-22T13:53:09;22.60;99.90
24162;DHT22;12318;51.262;7.066;2023-06-22T13:55:35;22.60;99.90
24162;DHT22;12318;51.262;7.066;2023-06-22T13:58:02;22.60;99.90
24162;DHT22;12318;51.262;7.066;2023-06-22T14:00:28;22.40;99.90
24162;DHT22;12318;51.262;7.066;2023-06-22T14:02:56;22.50;99.90
24162;DHT22;12318;51.262;7.066;2023-06-22T14:05:22;22.40;99.90
24162;DHT22;12318;51.262;7.066;2023-06-22T14:07:47;22.20;99.90
24162;DHT22;12318;51.262;7.066;2023-06-22T14:10:13;22.30;99.90
24162;DHT22;12318;51.262;7.066;2023-06-22T14:12:39;22.30;99.90
24162;DHT22;12318;51.262;7.066;2023-06-22T14:15:05;22.20;99.90
24162;DHT22;12318;51.262;7.066;2023-06-22T14:17:32;22.30;99.90
24162;DHT22;12318;51.262;7.066;2023-06-22T14:19:58;22.30;99.90
24162;DHT22;12318;51.262;7.066;2023-06-22T14:22:23;22.40;99.90
24162;DHT22;12318;51.262;7.066;2023-06-22T14:24:49;22.40;99.90
24162;DHT22;12318;51.262;7.066;2023-06-22T14:27:15;22.40;99.90
24162;DHT22;12318;51.262;7.066;2023-06-22T14:29:41;22.30;99.90
24162;DHT22;12318;51.262;7.066;2023-06-22T14:32:08;22.40;99.90
24162;DHT22;12318;51.262;7.066;2023-06-22T14:34:34;22.20;99.90
24162;DHT22;12318;51.262;7.066;2023-06-22T14:37:06;22.00;99.90
24162;DHT22;12318;51.262;7.066;2023-06-22T14:39:33;22.00;99.90
24162;DHT22;12318;51.262;7.066;2023-06-22T14:41:58;22.00;99.90
24162;DHT22;12318;51.262;7.066;2023-06-22T14:44:26;21.90;99.90
24162;DHT22;12318;51.262;7.066;2023-06-22T14:46:55;21.90;99.90
24162;DHT22;12318;51.262;7.066;2023-06-22T14:49:22;21.90;99.90
24162;DHT22;12318;51.262;7.066;2023-06-22T14:51:48;21.90;99.90
24162;DHT22;12318;51.262;7.066;2023-06-22T14:54:14;22.00;99.90
24162;DHT22;12318;51.262;7.066;2023-06-22T14:56:42;21.90;99.90
24162;DHT22;12318;51.262;7.066;2023-06-22T14:59:09;21.90;99.90
24162;DHT22;12318;51.262;7.066;2023-06-22T15:01:35;21.90;99.90
24162;DHT22;12318;51.262;7.066;2023-06-22T15:04:00;22.10;99.90
24162;DHT22;12318;51.262;7.066;2023-06-22T15:06:27;22.10;99.90
24162;DHT22;12318;51.262;7.066;2023-06-22T15:08:52;22.10;99.90
24162;DHT22;12318;51.262;7.066;2023-06-22T15:11:18;22.00;99.90
24162;DHT22;12318;51.262;7.066;2023-06-22T15:13:44;22.10;99.90
24162;DHT22;12318;51.262;7.066;2023-06-22T15:16:10;22.00;99.90
24162;DHT22;12318;51.262;7.066;2023-06-22T15:18:36;21.90;99.90
24162;DHT22;12318;51.262;7.066;2023-06-22T15:21:03;21.90;99.90
24162;DHT22;12318;51.262;7.066;2023-06-22T15:23:29;21.80;99.90
24162;DHT22;12318;51.262;7.066;2023-06-22T15:25:56;21.60;99.90
24162;DHT22;12318;51.262;7.066;2023-06-22T15:28:22;21.60;99.90
24162;DHT22;12318;51.262;7.066;2023-06-22T15:30:49;21.70;99.90
24162;DHT22;12318;51.262;7.066;2023-06-22T15:33:15;21.60;99.90
24162;DHT22;12318;51.262;7.066;2023-06-22T15:35:40;21.60;99.90
24162;DHT22;12318;51.262;7.066;2023-06-22T15:38:06;21.50;99.90
24162;DHT22;12318;51.262;7.066;2023-06-22T15:40:32;21.40;99.90
24162;DHT22;12318;51.262;7.066;2023-06-22T15:42:58;21.10;99.90
24162;DHT22;12318;51.262;7.066;2023-06-22T15:45:25;21.00;99.90
24162;DHT22;12318;51.262;7.066;2023-06-22T15:47:51;21.00;99.90
24162;DHT22;12318;51.262;7.066;2023-06-22T15:50:17;20.90;99.90
24162;DHT22;12318;51.262;7.066;2023-06-22T15:52:43;20.90;99.90
24162;DHT22;12318;51.262;7.066;2023-06-22T15:55:13;20.90;99.90
24162;DHT22;12318;51.262;7.066;2023-06-22T15:57:39;20.90;99.90
24162;DHT22;12318;51.262;7.066;2023-06-22T16:00:09;20.80;99.90
24162;DHT22;12318;51.262;7.066;2023-06-22T16:02:39;20.80;99.90
24162;DHT22;12318;51.262;7.066;2023-06-22T16:05:06;20.80;99.90
24162;DHT22;12318;51.262;7.066;2023-06-22T16:07:32;20.80;99.90
24162;DHT22;12318;51.262;7.066;2023-06-22T16:09:57;20.80;99.90
24162;DHT22;12318;51.262;7.066;2023-06-22T16:12:23;20.70;99.90
24162;DHT22;12318;51.262;7.066;2023-06-22T16:14:52;20.80;99.90
24162;DHT22;12318;51.262;7.066;2023-06-22T16:17:17;20.80;99.90
24162;DHT22;12318;51.262;7.066;2023-06-22T16:19:43;20.80;99.90
24162;DHT22;12318;51.262;7.066;2023-06-22T16:22:09;20.80;99.90
24162;DHT22;12318;51.262;7.066;2023-06-22T16:24:38;20.80;99.90
24162;DHT22;12318;51.262;7.066;2023-06-22T16:27:06;20.80;99.90
24162;DHT22;12318;51.262;7.066;2023-06-22T16:29:34;20.80;99.90
24162;DHT22;12318;51.262;7.066;2023-06-22T16:32:08;20.70;99.90
24162;DHT22;12318;51.262;7.066;2023-06-22T16:34:34;20.70;99.90
24162;DHT22;12318;51.262;7.066;2023-06-22T16:37:02;20.80;99.90
24162;DHT22;12318;51.262;7.066;2023-06-22T16:39:28;20.80;99.90
24162;DHT22;12318;51.262;7.066;2023-06-22T16:41:54;20.80;99.90
24162;DHT22;12318;51.262;7.066;2023-06-22T16:44:57;20.80;99.90
24162;DHT22;12318;51.262;7.066;2023-06-22T16:47:22;20.80;99.90
24162;DHT22;12318;51.262;7.066;2023-06-22T16:49:48;20.90;99.90
24162;DHT22;12318;51.262;7.066;2023-06-22T16:52:15;20.90;99.90
24162;DHT22;12318;51.262;7.066;2023-06-22T16:54:41;20.90;99.90
24162;DHT22;12318;51.262;7.066;2023-06-22T16:57:07;20.90;99.90
24162;DHT22;12318;51.262;7.066;2023-06-22T16:59:33;20.90;99.90
24162;DHT22;12318;51.262;7.066;2023-06-22T17:01:59;20.90;99.90
24162;DHT22;12318;51.262;7.066;2023-06-22T17:04:25;20.90;99.90
24162;DHT22;12318;51.262;7.066;2023-06-22T17:07:05;20.90;99.90
24162;DHT22;12318;51.262;7.066;2023-06-22T17:09:34;20.90;99.90
24162;DHT22;12318;51.262;7.066;2023-06-22T17:12:03;20.90;99.90
24162;DHT22;12318;51.262;7.066;2023-06-22T17:14:29;20.90;99.90
24162;DHT22;12318;51.262;7.066;2023-06-22T17:16:56;20.90;99.90
24162;DHT22;12318;51.262;7.066;2023-06-22T17:19:23;20.90;99.90
24162;DHT22;12318;51.262;7.066;2023-06-22T17:21:48;20.90;99.90
24162;DHT22;12318;51.262;7.066;2023-06-22T17:24:18;20.90;99.90
24162;DHT22;12318;51.262;7.066;2023-06-22T17:26:49;20.90;99.90
24162;DHT22;12318;51.262;7.066;2023-06-22T17:29:16;20.90;99.90
24162;DHT22;12318;51.262;7.066;2023-06-22T17:31:43;20.80;99.90
24162;DHT22;12318;51.262;7.066;2023-06-22T17:34:16;20.80;99.90
24162;DHT22;12318;51.262;7.066;2023-06-22T17:36:51;20.80;99.90
24162;DHT22;12318;51.262;7.066;2023-06-22T17:39:21;20.80;99.90
24162;DHT22;12318;51.262;7.066;2023-06-22T17:41:48;20.80;99.90
24162;DHT22;12318;51.262;7.066;2023-06-22T17:44:19;20.80;99.90
24162;DHT22;12318;51.262;7.066;2023-06-22T17:46:45;20.80;99.90
24162;DHT22;12318;51.262;7.066;2023-06-22T17:49:11;20.70;99.90
24162;DHT22;12318;51.262;7.066;2023-06-22T17:51:42;20.70;99.90
24162;DHT22;12318;51.262;7.066;2023-06-22T17:54:08;20.70;99.90
24162;DHT22;12318;51.262;7.066;2023-06-22T17:56:35;20.70;99.90
24162;DHT22;12318;51.262;7.066;2023-06-22T17:59:01;20.70;99.90
24162;DHT22;12318;51.262;7.066;2023-06-22T18:01:39;20.70;99.90
24162;DHT22;12318;51.262;7.066;2023-06-22T18:04:06;20.70;99.90
24162;DHT22;12318;51.262;7.066;2023-06-22T18:06:43;20.70;99.90
24162;DHT22;12318;51.262;7.066;2023-06-22T18:09:11;20.70;99.90
24162;DHT22;12318;51.262;7.066;2023-06-22T18:11:44;20.80;99.90